sensor_id;sensor_type;location;lat;lon;timestamp;P1;durP1;ratioP1;P2;durP2;ratioP2
20669;SDS011;10494;50.868;4.180;2023-04-10T00:01:27;16.48;;;11.25;;
20669;SDS011;10494;50.868;4.180;2023-04-10T00:03:56;17.83;;;11.30;;
20669;SDS011;10494;50.868;4.180;2023-04-10T00:06:21;17.05;;;11.23;;
20669;SDS011;10494;50.868;4.180;2023-04-10T00:08:47;22.30;;;11.48;;
20669;SDS011;10494;50.868;4.180;2023-04-10T00:11:13;18.70;;;11.83;;
20669;SDS011;10494;50.868;4.180;2023-04-10T00:13:38;18.70;;;11.55;;
20669;SDS011;10494;50.868;4.180;2023-04-10T00:16:04;17.33;;;11.73;;
20669;SDS011;10494;50.868;4.180;2023-04-10T00:18:30;17.90;;;11.57;;
20669;SDS011;10494;50.868;4.180;2023-04-10T00:20:55;18.13;;;11.50;;
20669;SDS011;10494;50.868;4.180;2023-04-10T00:23:21;19.50;;;11.63;;
20669;SDS011;10494;50.868;4.180;2023-04-10T00:25:48;17.70;;;12.00;;
20669;SDS011;10494;50.868;4.180;2023-04-10T00:28:13;18.23;;;12.37;;
20669;SDS011;10494;50.868;4.180;2023-04-10T00:30:41;16.07;;;10.80;;
20669;SDS011;10494;50.868;4.180;2023-04-10T00:33:06;13.67;;;9.80;;
20669;SDS011;10494;50.868;4.180;2023-04-10T00:35:32;15.20;;;9.50;;
20669;SDS011;10494;50.868;4.180;2023-04-10T00:37:57;14.37;;;9.40;;
20669;SDS011;10494;50.868;4.180;2023-04-10T00:40:23;12.70;;;9.07;;
20669;SDS011;10494;50.868;4.180;2023-04-10T00:42:49;14.03;;;9.97;;
20669;SDS011;10494;50.868;4.180;2023-04-10T00:45:15;14.30;;;9.75;;
20669;SDS011;10494;50.868;4.180;2023-04-10T00:47:40;13.65;;;9.50;;
20669;SDS011;10494;50.868;4.180;2023-04-10T00:50:06;16.80;;;9.57;;
20669;SDS011;10494;50.868;4.180;2023-04-10T00:52:32;14.27;;;9.20;;
20669;SDS011;10494;50.868;4.180;2023-04-10T00:54:58;13.10;;;8.57;;
20669;SDS011;10494;50.868;4.180;2023-04-10T00:57:23;13.65;;;8.55;;
20669;SDS011;10494;50.868;4.180;2023-04-10T00:59:51;14.40;;;8.30;;
20669;SDS011;10494;50.868;4.180;2023-04-10T01:02:17;11.97;;;7.63;;
20669;SDS011;10494;50.868;4.180;2023-04-10T01:04:44;12.83;;;8.27;;
20669;SDS011;10494;50.868;4.180;2023-04-10T01:10:03;15.10;;;8.33;;
20669;SDS011;10494;50.868;4.180;2023-04-10T01:12:57;12.77;;;7.83;;
20669;SDS011;10494;50.868;4.180;2023-04-10T01:15:36;13.40;;;7.80;;
20669;SDS011;10494;50.868;4.180;2023-04-10T01:20:37;13.50;;;7.90;;
20669;SDS011;10494;50.868;4.180;2023-04-10T01:26:16;14.33;;;8.20;;
20669;SDS011;10494;50.868;4.180;2023-04-10T01:29:06;13.20;;;8.43;;
20669;SDS011;10494;50.868;4.180;2023-04-10T01:31:36;14.73;;;7.90;;
20669;SDS011;10494;50.868;4.180;2023-04-10T01:34:07;14.93;;;8.30;;
20669;SDS011;10494;50.868;4.180;2023-04-10T01:36:37;12.50;;;8.25;;
20669;SDS011;10494;50.868;4.180;2023-04-10T01:39:10;13.33;;;7.83;;
20669;SDS011;10494;50.868;4.180;2023-04-10T01:41:37;11.17;;;7.43;;
20669;SDS011;10494;50.868;4.180;2023-04-10T01:44:05;13.20;;;8.03;;
20669;SDS011;10494;50.868;4.180;2023-04-10T01:46:32;11.07;;;7.50;;
20669;SDS011;10494;50.868;4.180;2023-04-10T01:49:00;13.33;;;8.77;;
20669;SDS011;10494;50.868;4.180;2023-04-10T01:51:28;11.07;;;7.43;;
20669;SDS011;10494;50.868;4.180;2023-04-10T01:53:55;14.03;;;8.00;;
20669;SDS011;10494;50.868;4.180;2023-04-10T01:56:21;12.20;;;7.50;;
20669;SDS011;10494;50.868;4.180;2023-04-10T01:58:47;12.07;;;7.50;;
20669;SDS011;10494;50.868;4.180;2023-04-10T02:01:19;12.70;;;7.77;;
20669;SDS011;10494;50.868;4.180;2023-04-10T02:03:46;10.77;;;6.77;;
20669;SDS011;10494;50.868;4.180;2023-04-10T02:09:45;10.37;;;7.37;;
20669;SDS011;10494;50.868;4.180;2023-04-10T02:12:30;10.57;;;7.37;;
20669;SDS011;10494;50.868;4.180;2023-04-10T02:15:00;12.90;;;7.17;;
20669;SDS011;10494;50.868;4.180;2023-04-10T02:17:29;15.70;;;7.50;;
20669;SDS011;10494;50.868;4.180;2023-04-10T02:19:56;15.05;;;7.18;;
20669;SDS011;10494;50.868;4.180;2023-04-10T02:22:23;11.40;;;7.57;;
20669;SDS011;10494;50.868;4.180;2023-04-10T02:24:50;9.83;;;7.10;;
20669;SDS011;10494;50.868;4.180;2023-04-10T02:30:00;11.13;;;7.40;;
20669;SDS011;10494;50.868;4.180;2023-04-10T02:32:27;13.17;;;7.17;;
20669;SDS011;10494;50.868;4.180;2023-04-10T02:34:53;10.80;;;6.70;;
20669;SDS011;10494;50.868;4.180;2023-04-10T02:37:20;12.33;;;6.63;;
20669;SDS011;10494;50.868;4.180;2023-04-10T02:39:46;11.37;;;6.77;;
20669;SDS011;10494;50.868;4.180;2023-04-10T02:42:11;10.67;;;7.07;;
20669;SDS011;10494;50.868;4.180;2023-04-10T02:44:37;12.50;;;7.60;;
20669;SDS011;10494;50.868;4.180;2023-04-10T02:47:05;10.13;;;7.13;;
20669;SDS011;10494;50.868;4.180;2023-04-10T02:49:32;10.73;;;7.43;;
20669;SDS011;10494;50.868;4.180;2023-04-10T02:52:01;10.33;;;7.07;;
20669;SDS011;10494;50.868;4.180;2023-04-10T02:54:27;10.87;;;6.83;;
20669;SDS011;10494;50.868;4.180;2023-04-10T02:56:52;11.37;;;7.13;;
20669;SDS011;10494;50.868;4.180;2023-04-10T02:59:18;10.43;;;7.07;;
20669;SDS011;10494;50.868;4.180;2023-04-10T03:01:45;10.07;;;6.82;;
20669;SDS011;10494;50.868;4.180;2023-04-10T03:04:11;11.77;;;7.20;;
20669;SDS011;10494;50.868;4.180;2023-04-10T03:06:37;10.13;;;6.90;;
20669;SDS011;10494;50.868;4.180;2023-04-10T03:09:02;10.10;;;6.80;;
20669;SDS011;10494;50.868;4.180;2023-04-10T03:11:28;10.73;;;6.90;;
20669;SDS011;10494;50.868;4.180;2023-04-10T03:13:54;9.20;;;6.50;;
20669;SDS011;10494;50.868;4.180;2023-04-10T03:16:22;10.10;;;6.00;;
20669;SDS011;10494;50.868;4.180;2023-04-10T03:18:47;10.40;;;6.87;;
20669;SDS011;10494;50.868;4.180;2023-04-10T03:21:13;10.73;;;6.63;;
20669;SDS011;10494;50.868;4.180;2023-04-10T03:23:39;10.13;;;6.83;;
20669;SDS011;10494;50.868;4.180;2023-04-10T03:26:04;11.05;;;6.97;;
20669;SDS011;10494;50.868;4.180;2023-04-10T03:28:30;11.23;;;6.40;;
20669;SDS011;10494;50.868;4.180;2023-04-10T03:30:57;9.73;;;6.70;;
20669;SDS011;10494;50.868;4.180;2023-04-10T03:33:23;9.73;;;6.70;;
20669;SDS011;10494;50.868;4.180;2023-04-10T03:35:48;9.73;;;6.65;;
20669;SDS011;10494;50.868;4.180;2023-04-10T03:38:14;11.80;;;7.10;;
20669;SDS011;10494;50.868;4.180;2023-04-10T03:40:40;10.45;;;7.53;;
20669;SDS011;10494;50.868;4.180;2023-04-10T03:43:05;9.38;;;6.47;;
20669;SDS011;10494;50.868;4.180;2023-04-10T03:45:31;9.23;;;7.03;;
20669;SDS011;10494;50.868;4.180;2023-04-10T03:47:57;10.50;;;6.90;;
20669;SDS011;10494;50.868;4.180;2023-04-10T03:50:23;10.83;;;6.87;;
20669;SDS011;10494;50.868;4.180;2023-04-10T03:52:49;10.33;;;6.83;;
20669;SDS011;10494;50.868;4.180;2023-04-10T03:55:15;13.30;;;7.53;;
20669;SDS011;10494;50.868;4.180;2023-04-10T03:57:47;10.97;;;6.93;;
20669;SDS011;10494;50.868;4.180;2023-04-10T04:00:13;13.83;;;7.50;;
20669;SDS011;10494;50.868;4.180;2023-04-10T04:02:40;11.17;;;6.57;;
20669;SDS011;10494;50.868;4.180;2023-04-10T04:05:06;17.13;;;7.13;;
20669;SDS011;10494;50.868;4.180;2023-04-10T04:07:31;12.23;;;7.50;;
20669;SDS011;10494;50.868;4.180;2023-04-10T04:09:57;12.13;;;7.23;;
20669;SDS011;10494;50.868;4.180;2023-04-10T04:12:24;11.87;;;7.43;;
20669;SDS011;10494;50.868;4.180;2023-04-10T04:14:49;9.83;;;6.70;;
20669;SDS011;10494;50.868;4.180;2023-04-10T04:17:15;13.27;;;6.90;;
20669;SDS011;10494;50.868;4.180;2023-04-10T04:19:40;10.90;;;6.57;;
20669;SDS011;10494;50.868;4.180;2023-04-10T04:22:06;12.73;;;6.67;;
20669;SDS011;10494;50.868;4.180;2023-04-10T04:24:31;13.57;;;7.30;;
20669;SDS011;10494;50.868;4.180;2023-04-10T04:26:57;12.40;;;7.53;;
20669;SDS011;10494;50.868;4.180;2023-04-10T04:29:23;11.47;;;6.87;;
20669;SDS011;10494;50.868;4.180;2023-04-10T04:31:49;12.93;;;7.50;;
20669;SDS011;10494;50.868;4.180;2023-04-10T04:34:15;10.20;;;6.80;;
20669;SDS011;10494;50.868;4.180;2023-04-10T04:36:40;11.67;;;6.77;;
20669;SDS011;10494;50.868;4.180;2023-04-10T04:39:06;11.70;;;6.87;;
20669;SDS011;10494;50.868;4.180;2023-04-10T04:41:32;11.97;;;7.10;;
20669;SDS011;10494;50.868;4.180;2023-04-10T04:43:57;12.87;;;7.27;;
20669;SDS011;10494;50.868;4.180;2023-04-10T04:46:25;12.67;;;7.63;;
20669;SDS011;10494;50.868;4.180;2023-04-10T04:48:50;10.57;;;6.93;;
20669;SDS011;10494;50.868;4.180;2023-04-10T04:51:16;10.13;;;6.30;;
20669;SDS011;10494;50.868;4.180;2023-04-10T04:53:41;8.53;;;6.33;;
20669;SDS011;10494;50.868;4.180;2023-04-10T04:56:07;10.83;;;6.57;;
20669;SDS011;10494;50.868;4.180;2023-04-10T04:58:33;9.67;;;6.43;;
20669;SDS011;10494;50.868;4.180;2023-04-10T05:00:59;12.73;;;7.20;;
20669;SDS011;10494;50.868;4.180;2023-04-10T05:03:24;10.00;;;6.87;;
20669;SDS011;10494;50.868;4.180;2023-04-10T05:05:52;12.57;;;7.10;;
20669;SDS011;10494;50.868;4.180;2023-04-10T05:08:18;9.33;;;5.93;;
20669;SDS011;10494;50.868;4.180;2023-04-10T05:10:44;8.80;;;6.40;;
20669;SDS011;10494;50.868;4.180;2023-04-10T05:13:10;9.33;;;6.27;;
20669;SDS011;10494;50.868;4.180;2023-04-10T05:15:35;10.03;;;6.57;;
20669;SDS011;10494;50.868;4.180;2023-04-10T05:18:01;11.37;;;6.67;;
20669;SDS011;10494;50.868;4.180;2023-04-10T05:20:26;9.77;;;6.67;;
20669;SDS011;10494;50.868;4.180;2023-04-10T05:22:52;9.17;;;6.37;;
20669;SDS011;10494;50.868;4.180;2023-04-10T05:25:18;10.47;;;7.10;;
20669;SDS011;10494;50.868;4.180;2023-04-10T05:27:43;14.07;;;7.30;;
20669;SDS011;10494;50.868;4.180;2023-04-10T05:30:09;9.60;;;6.63;;
20669;SDS011;10494;50.868;4.180;2023-04-10T05:32:35;10.30;;;6.50;;
20669;SDS011;10494;50.868;4.180;2023-04-10T05:35:01;10.33;;;6.60;;
20669;SDS011;10494;50.868;4.180;2023-04-10T05:37:26;10.73;;;6.67;;
20669;SDS011;10494;50.868;4.180;2023-04-10T05:39:52;10.30;;;6.13;;
20669;SDS011;10494;50.868;4.180;2023-04-10T05:42:17;8.67;;;6.20;;
20669;SDS011;10494;50.868;4.180;2023-04-10T05:44:43;10.00;;;6.13;;
20669;SDS011;10494;50.868;4.180;2023-04-10T05:47:09;11.13;;;6.33;;
20669;SDS011;10494;50.868;4.180;2023-04-10T05:49:35;12.17;;;6.47;;
20669;SDS011;10494;50.868;4.180;2023-04-10T05:52:00;9.03;;;6.23;;
20669;SDS011;10494;50.868;4.180;2023-04-10T05:54:26;10.17;;;6.47;;
20669;SDS011;10494;50.868;4.180;2023-04-10T05:56:51;11.10;;;6.20;;
20669;SDS011;10494;50.868;4.180;2023-04-10T05:59:17;11.33;;;6.33;;
20669;SDS011;10494;50.868;4.180;2023-04-10T06:01:43;8.93;;;6.03;;
20669;SDS011;10494;50.868;4.180;2023-04-10T06:04:10;9.47;;;6.03;;
20669;SDS011;10494;50.868;4.180;2023-04-10T06:06:35;9.33;;;5.97;;
20669;SDS011;10494;50.868;4.180;2023-04-10T06:09:01;9.57;;;6.30;;
20669;SDS011;10494;50.868;4.180;2023-04-10T06:11:27;9.63;;;6.50;;
20669;SDS011;10494;50.868;4.180;2023-04-10T06:13:53;11.55;;;6.75;;
20669;SDS011;10494;50.868;4.180;2023-04-10T06:16:18;12.27;;;6.93;;
20669;SDS011;10494;50.868;4.180;2023-04-10T06:18:45;9.30;;;5.93;;
20669;SDS011;10494;50.868;4.180;2023-04-10T06:21:12;11.23;;;6.63;;
20669;SDS011;10494;50.868;4.180;2023-04-10T06:23:38;11.10;;;6.67;;
20669;SDS011;10494;50.868;4.180;2023-04-10T06:26:04;11.33;;;6.03;;
20669;SDS011;10494;50.868;4.180;2023-04-10T06:28:30;10.57;;;6.03;;
20669;SDS011;10494;50.868;4.180;2023-04-10T06:30:56;11.37;;;6.97;;
20669;SDS011;10494;50.868;4.180;2023-04-10T06:33:22;9.52;;;6.32;;
20669;SDS011;10494;50.868;4.180;2023-04-10T06:35:47;11.48;;;6.25;;
20669;SDS011;10494;50.868;4.180;2023-04-10T06:38:14;8.93;;;6.03;;
20669;SDS011;10494;50.868;4.180;2023-04-10T06:40:40;9.65;;;5.93;;
20669;SDS011;10494;50.868;4.180;2023-04-10T06:43:05;9.32;;;6.13;;
20669;SDS011;10494;50.868;4.180;2023-04-10T06:45:31;10.98;;;6.30;;
20669;SDS011;10494;50.868;4.180;2023-04-10T06:47:57;11.07;;;5.93;;
20669;SDS011;10494;50.868;4.180;2023-04-10T06:50:22;11.73;;;6.50;;
20669;SDS011;10494;50.868;4.180;2023-04-10T06:52:48;8.90;;;5.83;;
20669;SDS011;10494;50.868;4.180;2023-04-10T06:55:13;9.52;;;5.78;;
20669;SDS011;10494;50.868;4.180;2023-04-10T06:57:39;9.18;;;6.57;;
20669;SDS011;10494;50.868;4.180;2023-04-10T07:00:06;10.05;;;6.13;;
20669;SDS011;10494;50.868;4.180;2023-04-10T07:02:33;8.85;;;6.38;;
20669;SDS011;10494;50.868;4.180;2023-04-10T07:04:58;12.07;;;6.18;;
20669;SDS011;10494;50.868;4.180;2023-04-10T07:07:24;9.05;;;5.43;;
20669;SDS011;10494;50.868;4.180;2023-04-10T07:09:50;7.90;;;6.00;;
20669;SDS011;10494;50.868;4.180;2023-04-10T07:12:16;7.47;;;5.32;;
20669;SDS011;10494;50.868;4.180;2023-04-10T07:14:41;8.40;;;5.80;;
20669;SDS011;10494;50.868;4.180;2023-04-10T07:17:07;8.32;;;5.85;;
20669;SDS011;10494;50.868;4.180;2023-04-10T07:19:33;9.45;;;6.05;;
20669;SDS011;10494;50.868;4.180;2023-04-10T07:21:59;8.27;;;5.70;;
20669;SDS011;10494;50.868;4.180;2023-04-10T07:24:24;7.13;;;5.28;;
20669;SDS011;10494;50.868;4.180;2023-04-10T07:26:50;8.05;;;5.22;;
20669;SDS011;10494;50.868;4.180;2023-04-10T07:29:16;8.20;;;5.90;;
20669;SDS011;10494;50.868;4.180;2023-04-10T07:31:41;7.20;;;5.25;;
20669;SDS011;10494;50.868;4.180;2023-04-10T07:34:08;9.07;;;5.93;;
20669;SDS011;10494;50.868;4.180;2023-04-10T07:36:35;8.65;;;6.18;;
20669;SDS011;10494;50.868;4.180;2023-04-10T07:39:00;7.85;;;5.47;;
20669;SDS011;10494;50.868;4.180;2023-04-10T07:41:26;7.53;;;5.25;;
20669;SDS011;10494;50.868;4.180;2023-04-10T07:43:52;7.95;;;5.47;;
20669;SDS011;10494;50.868;4.180;2023-04-10T07:46:17;8.45;;;5.63;;
20669;SDS011;10494;50.868;4.180;2023-04-10T07:48:43;7.88;;;5.35;;
20669;SDS011;10494;50.868;4.180;2023-04-10T07:51:08;7.30;;;5.28;;
20669;SDS011;10494;50.868;4.180;2023-04-10T07:53:34;7.22;;;5.38;;
20669;SDS011;10494;50.868;4.180;2023-04-10T07:56:01;6.88;;;5.25;;
20669;SDS011;10494;50.868;4.180;2023-04-10T07:58:27;8.05;;;4.88;;
20669;SDS011;10494;50.868;4.180;2023-04-10T08:00:52;6.93;;;5.32;;
20669;SDS011;10494;50.868;4.180;2023-04-10T08:03:18;7.45;;;5.20;;
20669;SDS011;10494;50.868;4.180;2023-04-10T08:05:44;8.32;;;5.45;;
20669;SDS011;10494;50.868;4.180;2023-04-10T08:08:09;11.57;;;5.25;;
20669;SDS011;10494;50.868;4.180;2023-04-10T08:10:35;6.30;;;4.88;;
20669;SDS011;10494;50.868;4.180;2023-04-10T08:13:02;6.50;;;5.38;;
20669;SDS011;10494;50.868;4.180;2023-04-10T08:15:27;6.13;;;4.88;;
20669;SDS011;10494;50.868;4.180;2023-04-10T08:17:53;7.50;;;5.32;;
20669;SDS011;10494;50.868;4.180;2023-04-10T08:20:18;8.02;;;5.35;;
20669;SDS011;10494;50.868;4.180;2023-04-10T08:22:44;7.30;;;5.20;;
20669;SDS011;10494;50.868;4.180;2023-04-10T08:25:10;7.55;;;5.45;;
20669;SDS011;10494;50.868;4.180;2023-04-10T08:27:35;7.55;;;5.25;;
20669;SDS011;10494;50.868;4.180;2023-04-10T08:30:01;7.90;;;4.93;;
20669;SDS011;10494;50.868;4.180;2023-04-10T08:32:27;7.10;;;5.15;;
20669;SDS011;10494;50.868;4.180;2023-04-10T08:34:53;8.02;;;5.45;;
20669;SDS011;10494;50.868;4.180;2023-04-10T08:37:18;7.70;;;5.28;;
20669;SDS011;10494;50.868;4.180;2023-04-10T08:39:45;7.93;;;4.95;;
20669;SDS011;10494;50.868;4.180;2023-04-10T08:42:10;6.72;;;4.97;;
20669;SDS011;10494;50.868;4.180;2023-04-10T08:44:36;7.45;;;5.05;;
20669;SDS011;10494;50.868;4.180;2023-04-10T08:47:03;7.80;;;5.38;;
20669;SDS011;10494;50.868;4.180;2023-04-10T08:52:06;7.13;;;5.22;;
20669;SDS011;10494;50.868;4.180;2023-04-10T08:54:34;7.78;;;5.63;;
20669;SDS011;10494;50.868;4.180;2023-04-10T08:57:02;8.30;;;5.18;;
20669;SDS011;10494;50.868;4.180;2023-04-10T08:59:30;8.52;;;6.20;;
20669;SDS011;10494;50.868;4.180;2023-04-10T09:01:56;7.47;;;4.95;;
20669;SDS011;10494;50.868;4.180;2023-04-10T09:04:23;7.55;;;5.97;;
20669;SDS011;10494;50.868;4.180;2023-04-10T09:06:50;8.05;;;5.63;;
20669;SDS011;10494;50.868;4.180;2023-04-10T09:09:17;6.68;;;5.28;;
20669;SDS011;10494;50.868;4.180;2023-04-10T09:14:20;9.05;;;5.93;;
20669;SDS011;10494;50.868;4.180;2023-04-10T09:16:47;8.23;;;5.57;;
20669;SDS011;10494;50.868;4.180;2023-04-10T09:19:12;6.47;;;5.20;;
20669;SDS011;10494;50.868;4.180;2023-04-10T09:21:53;8.23;;;5.63;;
20669;SDS011;10494;50.868;4.180;2023-04-10T09:24:19;7.70;;;5.68;;
20669;SDS011;10494;50.868;4.180;2023-04-10T09:26:45;7.13;;;5.53;;
20669;SDS011;10494;50.868;4.180;2023-04-10T09:29:10;8.05;;;5.40;;
20669;SDS011;10494;50.868;4.180;2023-04-10T09:31:36;9.48;;;5.65;;
20669;SDS011;10494;50.868;4.180;2023-04-10T09:34:13;9.55;;;6.65;;
20669;SDS011;10494;50.868;4.180;2023-04-10T09:36:42;8.05;;;5.70;;
20669;SDS011;10494;50.868;4.180;2023-04-10T09:39:09;7.45;;;5.22;;
20669;SDS011;10494;50.868;4.180;2023-04-10T09:41:45;7.82;;;5.25;;
20669;SDS011;10494;50.868;4.180;2023-04-10T09:44:16;9.20;;;5.65;;
20669;SDS011;10494;50.868;4.180;2023-04-10T09:46:44;7.93;;;5.43;;
20669;SDS011;10494;50.868;4.180;2023-04-10T09:49:10;6.57;;;5.10;;
20669;SDS011;10494;50.868;4.180;2023-04-10T09:51:35;7.35;;;5.22;;
20669;SDS011;10494;50.868;4.180;2023-04-10T09:54:01;6.63;;;5.15;;
20669;SDS011;10494;50.868;4.180;2023-04-10T09:56:28;7.15;;;5.15;;
20669;SDS011;10494;50.868;4.180;2023-04-10T09:58:58;6.30;;;5.30;;
20669;SDS011;10494;50.868;4.180;2023-04-10T10:01:28;5.72;;;4.70;;
20669;SDS011;10494;50.868;4.180;2023-04-10T10:04:00;9.15;;;4.78;;
20669;SDS011;10494;50.868;4.180;2023-04-10T10:06:28;10.93;;;5.85;;
20669;SDS011;10494;50.868;4.180;2023-04-10T10:08:56;6.70;;;5.18;;
20669;SDS011;10494;50.868;4.180;2023-04-10T10:11:25;5.47;;;4.93;;
20669;SDS011;10494;50.868;4.180;2023-04-10T10:13:52;7.00;;;5.43;;
20669;SDS011;10494;50.868;4.180;2023-04-10T10:16:32;6.43;;;5.18;;
20669;SDS011;10494;50.868;4.180;2023-04-10T10:21:37;7.93;;;4.97;;
20669;SDS011;10494;50.868;4.180;2023-04-10T10:24:02;7.05;;;5.25;;
20669;SDS011;10494;50.868;4.180;2023-04-10T10:26:32;7.82;;;5.05;;
20669;SDS011;10494;50.868;4.180;2023-04-10T10:29:03;7.38;;;5.05;;
20669;SDS011;10494;50.868;4.180;2023-04-10T10:31:31;6.38;;;5.30;;
20669;SDS011;10494;50.868;4.180;2023-04-10T10:33:58;6.40;;;5.30;;
20669;SDS011;10494;50.868;4.180;2023-04-10T10:36:29;7.40;;;4.93;;
20669;SDS011;10494;50.868;4.180;2023-04-10T10:41:50;9.27;;;5.43;;
20669;SDS011;10494;50.868;4.180;2023-04-10T10:47:19;8.25;;;4.55;;
20669;SDS011;10494;50.868;4.180;2023-04-10T10:55:26;5.30;;;4.50;;
20669;SDS011;10494;50.868;4.180;2023-04-10T11:00:19;7.88;;;4.65;;
20669;SDS011;10494;50.868;4.180;2023-04-10T11:03:46;6.07;;;4.70;;
20669;SDS011;10494;50.868;4.180;2023-04-10T11:05:48;7.22;;;4.55;;
20669;SDS011;10494;50.868;4.180;2023-04-10T11:11:04;5.75;;;4.63;;
20669;SDS011;10494;50.868;4.180;2023-04-10T11:13:31;5.53;;;3.97;;
20669;SDS011;10494;50.868;4.180;2023-04-10T11:15:59;5.70;;;4.38;;
20669;SDS011;10494;50.868;4.180;2023-04-10T11:21:11;6.93;;;4.60;;
20669;SDS011;10494;50.868;4.180;2023-04-10T11:28:58;6.47;;;4.40;;
20669;SDS011;10494;50.868;4.180;2023-04-10T11:31:25;8.52;;;4.05;;
20669;SDS011;10494;50.868;4.180;2023-04-10T11:36:20;6.68;;;3.90;;
20669;SDS011;10494;50.868;4.180;2023-04-10T11:38:52;5.80;;;4.03;;
20669;SDS011;10494;50.868;4.180;2023-04-10T11:41:20;5.03;;;3.70;;
20669;SDS011;10494;50.868;4.180;2023-04-10T11:43:49;5.55;;;3.95;;
20669;SDS011;10494;50.868;4.180;2023-04-10T11:46:16;4.90;;;3.78;;
20669;SDS011;10494;50.868;4.180;2023-04-10T11:48:41;5.32;;;4.25;;
20669;SDS011;10494;50.868;4.180;2023-04-10T11:51:08;4.65;;;3.47;;
20669;SDS011;10494;50.868;4.180;2023-04-10T11:53:34;4.65;;;3.63;;
20669;SDS011;10494;50.868;4.180;2023-04-10T11:56:00;4.65;;;3.92;;
20669;SDS011;10494;50.868;4.180;2023-04-10T11:58:28;7.85;;;4.25;;
20669;SDS011;10494;50.868;4.180;2023-04-10T12:01:03;7.47;;;3.85;;
20669;SDS011;10494;50.868;4.180;2023-04-10T12:03:30;4.95;;;4.00;;
20669;SDS011;10494;50.868;4.180;2023-04-10T12:06:10;4.80;;;4.05;;
20669;SDS011;10494;50.868;4.180;2023-04-10T12:08:41;5.40;;;3.90;;
20669;SDS011;10494;50.868;4.180;2023-04-10T12:11:13;7.10;;;4.10;;
20669;SDS011;10494;50.868;4.180;2023-04-10T12:13:41;4.40;;;3.78;;
20669;SDS011;10494;50.868;4.180;2023-04-10T12:16:08;5.28;;;4.18;;
20669;SDS011;10494;50.868;4.180;2023-04-10T12:18:34;6.30;;;4.60;;
20669;SDS011;10494;50.868;4.180;2023-04-10T12:21:00;9.40;;;4.82;;
20669;SDS011;10494;50.868;4.180;2023-04-10T12:23:28;9.85;;;4.65;;
20669;SDS011;10494;50.868;4.180;2023-04-10T12:28:49;6.95;;;4.97;;
20669;SDS011;10494;50.868;4.180;2023-04-10T12:31:16;11.65;;;6.13;;
20669;SDS011;10494;50.868;4.180;2023-04-10T12:33:45;10.90;;;6.03;;
20669;SDS011;10494;50.868;4.180;2023-04-10T12:36:23;7.38;;;5.40;;
20669;SDS011;10494;50.868;4.180;2023-04-10T12:38:53;7.63;;;5.57;;
20669;SDS011;10494;50.868;4.180;2023-04-10T12:41:24;7.97;;;5.50;;
20669;SDS011;10494;50.868;4.180;2023-04-10T12:43:52;9.90;;;5.75;;
20669;SDS011;10494;50.868;4.180;2023-04-10T12:46:30;7.18;;;5.53;;
20669;SDS011;10494;50.868;4.180;2023-04-10T12:48:56;8.15;;;5.63;;
20669;SDS011;10494;50.868;4.180;2023-04-10T12:51:40;8.00;;;5.57;;
20669;SDS011;10494;50.868;4.180;2023-04-10T12:54:07;9.63;;;6.03;;
20669;SDS011;10494;50.868;4.180;2023-04-10T12:56:39;7.70;;;5.88;;
20669;SDS011;10494;50.868;4.180;2023-04-10T12:59:10;12.63;;;6.30;;
20669;SDS011;10494;50.868;4.180;2023-04-10T13:01:37;13.38;;;6.38;;
20669;SDS011;10494;50.868;4.180;2023-04-10T13:04:03;9.27;;;5.88;;
20669;SDS011;10494;50.868;4.180;2023-04-10T13:06:29;11.02;;;6.50;;
20669;SDS011;10494;50.868;4.180;2023-04-10T13:08:54;8.38;;;6.47;;
20669;SDS011;10494;50.868;4.180;2023-04-10T13:11:20;8.52;;;6.53;;
20669;SDS011;10494;50.868;4.180;2023-04-10T13:13:47;7.55;;;5.90;;
20669;SDS011;10494;50.868;4.180;2023-04-10T13:16:13;7.40;;;5.32;;
20669;SDS011;10494;50.868;4.180;2023-04-10T13:18:39;8.68;;;5.53;;
20669;SDS011;10494;50.868;4.180;2023-04-10T13:21:05;7.07;;;5.03;;
20669;SDS011;10494;50.868;4.180;2023-04-10T13:23:31;7.00;;;5.20;;
20669;SDS011;10494;50.868;4.180;2023-04-10T13:25:56;6.53;;;4.95;;
20669;SDS011;10494;50.868;4.180;2023-04-10T13:28:23;6.40;;;5.05;;
20669;SDS011;10494;50.868;4.180;2023-04-10T13:30:48;7.10;;;5.35;;
20669;SDS011;10494;50.868;4.180;2023-04-10T13:33:14;6.45;;;5.15;;
20669;SDS011;10494;50.868;4.180;2023-04-10T13:35:40;6.05;;;4.90;;
20669;SDS011;10494;50.868;4.180;2023-04-10T13:38:06;8.05;;;4.78;;
20669;SDS011;10494;50.868;4.180;2023-04-10T13:40:33;6.75;;;4.72;;
20669;SDS011;10494;50.868;4.180;2023-04-10T13:42:58;6.78;;;4.85;;
20669;SDS011;10494;50.868;4.180;2023-04-10T13:45:24;8.23;;;4.47;;
20669;SDS011;10494;50.868;4.180;2023-04-10T13:47:50;4.65;;;4.15;;
20669;SDS011;10494;50.868;4.180;2023-04-10T13:50:15;5.80;;;4.68;;
20669;SDS011;10494;50.868;4.180;2023-04-10T13:52:41;5.03;;;4.25;;
20669;SDS011;10494;50.868;4.180;2023-04-10T13:55:07;5.25;;;4.60;;
20669;SDS011;10494;50.868;4.180;2023-04-10T13:57:33;5.53;;;4.57;;
20669;SDS011;10494;50.868;4.180;2023-04-10T13:59:58;7.95;;;4.53;;
20669;SDS011;10494;50.868;4.180;2023-04-10T14:02:25;6.97;;;4.80;;
20669;SDS011;10494;50.868;4.180;2023-04-10T14:04:50;5.70;;;4.45;;
20669;SDS011;10494;50.868;4.180;2023-04-10T14:07:17;6.03;;;4.43;;
20669;SDS011;10494;50.868;4.180;2023-04-10T14:09:44;8.13;;;4.93;;
20669;SDS011;10494;50.868;4.180;2023-04-10T14:12:11;7.78;;;5.00;;
20669;SDS011;10494;50.868;4.180;2023-04-10T14:14:36;5.07;;;4.25;;
20669;SDS011;10494;50.868;4.180;2023-04-10T14:17:02;6.78;;;4.00;;
20669;SDS011;10494;50.868;4.180;2023-04-10T14:19:28;7.22;;;4.25;;
20669;SDS011;10494;50.868;4.180;2023-04-10T14:21:53;6.10;;;4.28;;
20669;SDS011;10494;50.868;4.180;2023-04-10T14:24:19;7.43;;;3.95;;
20669;SDS011;10494;50.868;4.180;2023-04-10T14:26:45;7.70;;;3.90;;
20669;SDS011;10494;50.868;4.180;2023-04-10T14:29:11;6.57;;;3.70;;
20669;SDS011;10494;50.868;4.180;2023-04-10T14:31:36;4.60;;;3.00;;
20669;SDS011;10494;50.868;4.180;2023-04-10T14:34:02;3.05;;;2.47;;
20669;SDS011;10494;50.868;4.180;2023-04-10T14:36:27;7.63;;;2.80;;
20669;SDS011;10494;50.868;4.180;2023-04-10T14:38:53;7.68;;;2.85;;
20669;SDS011;10494;50.868;4.180;2023-04-10T14:41:18;4.00;;;2.83;;
20669;SDS011;10494;50.868;4.180;2023-04-10T14:43:44;3.83;;;2.47;;
20669;SDS011;10494;50.868;4.180;2023-04-10T14:46:10;4.90;;;2.67;;
20669;SDS011;10494;50.868;4.180;2023-04-10T14:48:35;8.55;;;3.10;;
20669;SDS011;10494;50.868;4.180;2023-04-10T14:51:01;4.13;;;3.20;;
20669;SDS011;10494;50.868;4.180;2023-04-10T14:53:28;5.70;;;3.15;;
20669;SDS011;10494;50.868;4.180;2023-04-10T14:55:53;5.32;;;3.47;;
20669;SDS011;10494;50.868;4.180;2023-04-10T14:58:19;4.90;;;3.60;;
20669;SDS011;10494;50.868;4.180;2023-04-10T15:00:45;4.38;;;3.40;;
20669;SDS011;10494;50.868;4.180;2023-04-10T15:03:11;6.82;;;3.50;;
20669;SDS011;10494;50.868;4.180;2023-04-10T15:05:36;6.40;;;3.78;;
20669;SDS011;10494;50.868;4.180;2023-04-10T15:08:02;4.03;;;3.30;;
20669;SDS011;10494;50.868;4.180;2023-04-10T15:10:28;6.85;;;4.43;;
20669;SDS011;10494;50.868;4.180;2023-04-10T15:12:54;5.80;;;3.72;;
20669;SDS011;10494;50.868;4.180;2023-04-10T15:15:20;7.50;;;4.88;;
20669;SDS011;10494;50.868;4.180;2023-04-10T15:17:46;13.45;;;8.40;;
20669;SDS011;10494;50.868;4.180;2023-04-10T15:20:11;9.98;;;5.80;;
20669;SDS011;10494;50.868;4.180;2023-04-10T15:22:38;8.13;;;4.95;;
20669;SDS011;10494;50.868;4.180;2023-04-10T15:25:06;6.15;;;4.55;;
20669;SDS011;10494;50.868;4.180;2023-04-10T15:27:33;8.00;;;4.93;;
20669;SDS011;10494;50.868;4.180;2023-04-10T15:29:59;10.73;;;5.18;;
20669;SDS011;10494;50.868;4.180;2023-04-10T15:32:24;7.55;;;4.97;;